Weather at Ua Pou Airport

Public forecast

Using degrees Celsius for public forecast. Weather courtesy of forecast.io.

Closest aviation weather report (METAR) to Ua Pou Airport

Report is more than 6 hours old.

Closest report is Tongareva Airport, 1,064.3 nm (1,971.0 km) W. Retrieved 2021/11/28 07:00 UTC (1 day ago):

NCPY 280700Z AUTO 06006KT //// ////// 28/23 Q1010

Closest aviation forecast (TAF) to Ua Pou Airport

Forecast is more than 12 hours old.

Closest forecast is Tongareva Airport, 1,064.3 nm (1,971.0 km) W. Retrieved 2018/02/21 16:17 UTC (4 years ago):

TAF NCPY 211518Z 2116/2205 06012KT 9999 SCT018 BKN100 PROB40 TEMPO 2116/2205 3000 TSRA BKN015 FEW018CB